Time;durP1;ratioP1;P1;durP2;ratioP2;P2;SDS_P1;SDS_P2;PMS_P1;PMS_P2;Temp;Humidity;BMP_temperature;BMP_pressure;BME280_temperature;BME280_humidity;BME280_pressure;Samples;Min_cycle;Max_cycle;Signal;HPM_P1;HPM_P2
2022/05/12 00:07:41;;;;;;;14.57;6.43;;;;;;;;;;6208990;23;20647;-89
2022/05/12 00:10:49;;;;;;;13.02;7.30;;;;;;;;;;6228275;23;20155;-89
2022/05/12 00:13:54;;;;;;;15.57;7.25;;;;;;;;;;6228501;23;20164;-88
2022/05/12 00:17:00;;;;;;;15.90;7.28;;;;;;;;;;6226913;23;20299;-89
2022/05/12 00:20:06;;;;;;;14.68;7.32;;;;;;;;;;6225894;23;20264;-90
2022/05/12 00:23:13;;;;;;;13.88;7.10;;;;;;;;;;6226642;23;20236;-89
2022/05/12 00:26:18;;;;;;;13.20;6.53;;;;;;;;;;6208218;23;20190;-90
2022/05/12 00:29:23;;;;;;;8.82;5.97;;;;;;;;;;6210184;23;20246;-88
2022/05/12 00:32:29;;;;;;;15.25;7.80;;;;;;;;;;6208978;23;20163;-89
2022/05/12 00:35:35;;;;;;;14.73;6.75;;;;;;;;;;6228274;23;20223;-89
2022/05/12 00:38:42;;;;;;;11.40;7.00;;;;;;;;;;6227148;23;20168;-88
2022/05/12 00:41:47;;;;;;;15.00;6.70;;;;;;;;;;6211147;23;20171;-90
2022/05/12 00:44:52;;;;;;;11.57;6.38;;;;;;;;;;6228159;23;20611;-90
2022/05/12 00:47:59;;;;;;;11.95;6.78;;;;;;;;;;6228431;23;20166;-89
2022/05/12 00:51:05;;;;;;;15.88;7.28;;;;;;;;;;6212153;23;20210;-88
2022/05/12 00:54:13;;;;;;;15.18;7.30;;;;;;;;;;6228573;23;20171;-88
2022/05/12 00:57:19;;;;;;;12.48;7.07;;;;;;;;;;6231082;23;20174;-90
2022/05/12 01:00:26;;;;;;;11.05;7.03;;;;;;;;;;6230472;23;20234;-89
2022/05/12 01:03:32;;;;;;;17.90;7.10;;;;;;;;;;6229821;23;20167;-89
2022/05/12 01:06:38;;;;;;;46.85;8.20;;;;;;;;;;6213107;23;20210;-88
2022/05/12 01:09:45;;;;;;;12.68;7.18;;;;;;;;;;6232580;23;20171;-89
2022/05/12 01:12:50;;;;;;;11.95;6.97;;;;;;;;;;6230662;23;20166;-88
2022/05/12 01:15:56;;;;;;;18.23;7.22;;;;;;;;;;6229198;23;20218;-89
2022/05/12 01:19:01;;;;;;;12.95;7.45;;;;;;;;;;6228427;23;20154;-89
2022/05/12 01:22:08;;;;;;;20.13;7.57;;;;;;;;;;6228005;23;20191;-89
2022/05/12 01:25:16;;;;;;;11.57;6.55;;;;;;;;;;6229964;23;20147;-90
2022/05/12 01:28:22;;;;;;;11.18;7.18;;;;;;;;;;6227587;23;20171;-88
2022/05/12 01:31:27;;;;;;;13.73;7.03;;;;;;;;;;6229597;23;20155;-90
2022/05/12 01:34:32;;;;;;;14.23;6.90;;;;;;;;;;6211989;23;20171;-88
2022/05/12 01:37:40;;;;;;;14.43;7.03;;;;;;;;;;6228963;23;20171;-90
2022/05/12 01:40:47;;;;;;;12.55;6.45;;;;;;;;;;6229559;23;20187;-88
2022/05/12 01:43:52;;;;;;;11.55;7.13;;;;;;;;;;6208320;23;20187;-89
2022/05/12 01:46:57;;;;;;;15.35;7.53;;;;;;;;;;6226007;23;20195;-89
2022/05/12 01:50:02;;;;;;;16.73;7.93;;;;;;;;;;6208680;23;20611;-92
2022/05/12 01:53:10;;;;;;;14.43;7.75;;;;;;;;;;6224929;23;20167;-88
2022/05/12 01:56:16;;;;;;;13.38;7.18;;;;;;;;;;6226400;23;20191;-90
2022/05/12 01:59:23;;;;;;;12.80;7.60;;;;;;;;;;6208590;23;20171;-89
2022/05/12 02:02:28;;;;;;;16.00;7.40;;;;;;;;;;6224063;23;20187;-91
2022/05/12 02:05:34;;;;;;;13.60;7.93;;;;;;;;;;6225363;23;20195;-88
2022/05/12 02:08:39;;;;;;;14.45;7.32;;;;;;;;;;6225106;23;20170;-88
2022/05/12 02:11:46;;;;;;;15.02;7.72;;;;;;;;;;6209502;23;20215;-90
2022/05/12 02:14:50;;;;;;;13.50;7.00;;;;;;;;;;6225451;23;20299;-90
2022/05/12 02:17:55;;;;;;;14.05;6.72;;;;;;;;;;6224354;23;20175;-90
2022/05/12 02:21:01;;;;;;;13.10;8.07;;;;;;;;;;6227152;23;20190;-88
2022/05/12 02:24:06;;;;;;;13.02;7.70;;;;;;;;;;6226278;23;20175;-90
2022/05/12 02:27:13;;;;;;;15.20;7.40;;;;;;;;;;6209939;23;20219;-90
2022/05/12 02:30:22;;;;;;;13.10;7.50;;;;;;;;;;6229048;23;20198;-90
2022/05/12 02:33:27;;;;;;;13.07;7.55;;;;;;;;;;6226666;23;20496;-89
2022/05/12 02:36:32;;;;;;;13.00;7.22;;;;;;;;;;6227524;23;20171;-90
2022/05/12 02:39:40;;;;;;;12.02;7.18;;;;;;;;;;6226421;23;20195;-90
2022/05/12 02:42:46;;;;;;;15.80;8.30;;;;;;;;;;6227807;23;20600;-88
2022/05/12 02:45:51;;;;;;;15.05;7.75;;;;;;;;;;6227549;23;20167;-89
2022/05/12 02:48:56;;;;;;;14.63;7.75;;;;;;;;;;6232647;23;20498;-90
2022/05/12 02:52:01;;;;;;;15.93;8.38;;;;;;;;;;6227827;23;20263;-89
2022/05/12 02:55:07;;;;;;;13.75;8.00;;;;;;;;;;6206914;23;20225;-89
2022/05/12 02:58:13;;;;;;;16.10;7.85;;;;;;;;;;6224568;23;20232;-90
2022/05/12 03:01:19;;;;;;;15.57;7.88;;;;;;;;;;6208859;23;20175;-90
2022/05/12 03:04:24;;;;;;;15.00;8.23;;;;;;;;;;6226090;23;20175;-89
2022/05/12 03:07:29;;;;;;;16.95;8.48;;;;;;;;;;6226185;23;20214;-90
2022/05/12 03:10:34;;;;;;;19.15;8.25;;;;;;;;;;6226009;23;20172;-88
2022/05/12 03:13:40;;;;;;;16.92;8.52;;;;;;;;;;6226599;23;20166;-89
2022/05/12 03:16:45;;;;;;;20.30;8.05;;;;;;;;;;6226472;23;20171;-87
2022/05/12 03:19:50;;;;;;;14.70;7.97;;;;;;;;;;6227154;23;20164;-89
2022/05/12 03:22:56;;;;;;;14.05;8.10;;;;;;;;;;6210422;23;20275;-89
2022/05/12 03:26:01;;;;;;;19.00;7.93;;;;;;;;;;6226868;23;20163;-89
2022/05/12 03:29:07;;;;;;;15.98;8.48;;;;;;;;;;6227181;23;20282;-89
2022/05/12 03:32:12;;;;;;;16.40;8.13;;;;;;;;;;6227509;23;20151;-88
2022/05/12 03:35:18;;;;;;;15.23;8.07;;;;;;;;;;6227392;23;20194;-89
2022/05/12 03:38:23;;;;;;;14.98;8.23;;;;;;;;;;6227302;23;20488;-90
2022/05/12 03:41:28;;;;;;;15.35;8.25;;;;;;;;;;6211226;23;20167;-89
2022/05/12 03:44:49;;;;;;;18.33;7.68;;;;;;;;;;6227241;23;20210;-89
2022/05/12 03:47:55;;;;;;;13.23;8.23;;;;;;;;;;6227056;23;20190;-90
2022/05/12 03:51:00;;;;;;;19.13;8.05;;;;;;;;;;6210447;23;20202;-90
2022/05/12 03:54:05;;;;;;;17.50;8.18;;;;;;;;;;6228117;23;20242;-88
2022/05/12 03:57:10;;;;;;;14.15;7.82;;;;;;;;;;6226958;23;20179;-90
2022/05/12 04:00:19;;;;;;;15.27;7.05;;;;;;;;;;6228039;23;20155;-89
2022/05/12 04:07:15;;;;;;;10.13;6.68;;;;;;;;;;6209866;23;20225;-90
2022/05/12 04:10:21;;;;;;;18.10;8.48;;;;;;;;;;6225726;23;20167;-87
2022/05/12 04:13:26;;;;;;;13.85;7.35;;;;;;;;;;6227434;23;20171;-89
2022/05/12 04:16:32;;;;;;;13.68;8.27;;;;;;;;;;6228368;23;20172;-88
2022/05/12 04:19:38;;;;;;;29.52;9.48;;;;;;;;;;6228262;23;20167;-89
2022/05/12 04:22:44;;;;;;;14.52;7.25;;;;;;;;;;6229525;23;20167;-87
2022/05/12 04:25:49;;;;;;;17.70;7.03;;;;;;;;;;6228532;23;20172;-89
2022/05/12 04:28:54;;;;;;;12.00;7.20;;;;;;;;;;6209487;23;20167;-89
2022/05/12 04:32:01;;;;;;;17.38;8.60;;;;;;;;;;6210996;23;20167;-89
2022/05/12 04:35:12;;;;;;;19.35;9.10;;;;;;;;;;6228560;23;20218;-89
2022/05/12 04:38:17;;;;;;;16.73;8.55;;;;;;;;;;6210964;23;20187;-88
2022/05/12 04:41:23;;;;;;;15.55;8.07;;;;;;;;;;6227657;23;20166;-89
2022/05/12 04:44:29;;;;;;;14.10;8.25;;;;;;;;;;6211358;23;20175;-87
2022/05/12 04:47:37;;;;;;;17.75;8.32;;;;;;;;;;6228655;23;20198;-88
2022/05/12 04:50:42;;;;;;;18.70;8.45;;;;;;;;;;6229469;23;20163;-90
2022/05/12 04:53:48;;;;;;;17.15;8.18;;;;;;;;;;6229624;23;20214;-89
2022/05/12 04:56:53;;;;;;;17.98;8.20;;;;;;;;;;6213000;23;20187;-89
2022/05/12 04:59:59;;;;;;;17.00;7.82;;;;;;;;;;6212621;23;20224;-88
2022/05/12 05:03:06;;;;;;;21.13;8.27;;;;;;;;;;6229578;23;20171;-90
2022/05/12 05:06:13;;;;;;;17.52;8.45;;;;;;;;;;6212176;23;20187;-87
2022/05/12 05:09:18;;;;;;;12.85;7.25;;;;;;;;;;6213461;23;20159;-89
2022/05/12 05:12:23;;;;;;;14.38;7.53;;;;;;;;;;6230255;23;20158;-88
2022/05/12 05:15:31;;;;;;;14.90;8.43;;;;;;;;;;6228474;23;20625;-88
2022/05/12 05:18:38;;;;;;;13.55;7.90;;;;;;;;;;6211424;23;20166;-88
2022/05/12 05:21:44;;;;;;;13.55;8.27;;;;;;;;;;6213918;23;20219;-88
2022/05/12 05:24:49;;;;;;;17.67;8.45;;;;;;;;;;6229815;23;20167;-89
2022/05/12 05:27:55;;;;;;;17.50;8.05;;;;;;;;;;6214370;23;20190;-90
2022/05/12 05:31:04;;;;;;;18.27;7.50;;;;;;;;;;6213516;23;20163;-87
2022/05/12 05:34:12;;;;;;;14.77;7.50;;;;;;;;;;6228898;23;20517;-89
2022/05/12 05:37:17;;;;;;;14.45;7.68;;;;;;;;;;6230664;23;20176;-88
2022/05/12 05:40:23;;;;;;;12.38;7.25;;;;;;;;;;6211193;23;20186;-90
2022/05/12 05:43:28;;;;;;;13.38;6.85;;;;;;;;;;6211541;23;20282;-89
2022/05/12 05:46:33;;;;;;;16.92;7.70;;;;;;;;;;6228932;23;20202;-90
2022/05/12 05:49:41;;;;;;;20.10;8.30;;;;;;;;;;6228004;23;20163;-89
2022/05/12 05:56:14;;;;;;;11.85;7.90;;;;;;;;;;6229648;23;20183;-86
2022/05/12 05:59:23;;;;;;;15.93;8.00;;;;;;;;;;6213083;23;20196;-89
2022/05/12 06:02:28;;;;;;;12.27;7.63;;;;;;;;;;6231565;23;20207;-89
2022/05/12 06:05:43;;;;;;;13.70;8.20;;;;;;;;;;6233144;23;20163;-91
2022/05/12 06:08:48;;;;;;;17.08;8.38;;;;;;;;;;6230106;23;20195;-90
2022/05/12 06:11:54;;;;;;;12.15;8.02;;;;;;;;;;6231424;23;20163;-89
2022/05/12 06:14:59;;;;;;;16.20;8.13;;;;;;;;;;6231780;23;20168;-90
2022/05/12 06:18:07;;;;;;;13.32;7.47;;;;;;;;;;6230515;23;20172;-90
2022/05/12 06:21:14;;;;;;;11.98;7.13;;;;;;;;;;6234213;23;20187;-89
2022/05/12 06:24:19;;;;;;;11.15;7.25;;;;;;;;;;6232009;23;20179;-89
2022/05/12 06:27:24;;;;;;;11.70;6.82;;;;;;;;;;6212413;23;20738;-90
2022/05/12 06:30:30;;;;;;;12.25;7.78;;;;;;;;;;6229270;23;20242;-90
2022/05/12 06:33:37;;;;;;;15.68;7.20;;;;;;;;;;6230799;23;20163;-89
2022/05/12 06:36:45;;;;;;;11.52;6.80;;;;;;;;;;6229985;23;20163;-90
2022/05/12 06:39:51;;;;;;;10.63;7.05;;;;;;;;;;6232164;22;20179;-91
2022/05/12 06:42:56;;;;;;;10.90;6.10;;;;;;;;;;6232842;23;20489;-90
2022/05/12 06:46:05;;;;;;;11.35;7.05;;;;;;;;;;6231401;23;20270;-91
2022/05/12 06:49:10;;;;;;;11.52;6.90;;;;;;;;;;6232136;23;20190;-90
2022/05/12 06:52:17;;;;;;;13.15;6.32;;;;;;;;;;6230006;23;20163;-90
2022/05/12 06:55:22;;;;;;;11.77;6.93;;;;;;;;;;6230086;23;20167;-90
2022/05/12 06:58:27;;;;;;;12.18;7.05;;;;;;;;;;6227367;23;20167;-90
2022/05/12 07:01:32;;;;;;;9.73;6.32;;;;;;;;;;6229391;23;20166;-88
2022/05/12 07:04:38;;;;;;;14.10;7.93;;;;;;;;;;6229460;23;20166;-89
2022/05/12 07:07:46;;;;;;;13.45;6.72;;;;;;;;;;6213341;23;20325;-90
2022/05/12 07:10:51;;;;;;;14.23;6.25;;;;;;;;;;6231436;23;20168;-90
2022/05/12 07:13:56;;;;;;;16.15;6.53;;;;;;;;;;6213694;23;20167;-90
2022/05/12 07:17:03;;;;;;;10.80;5.55;;;;;;;;;;6229473;23;20167;-92
2022/05/12 07:27:11;;;;;;;12.20;5.80;;;;;;;;;;6231281;23;20247;-91
2022/05/12 07:31:00;;;;;;;12.65;5.88;;;;;;;;;;6229772;23;20170;-91
2022/05/12 07:33:52;;;;;;;15.15;4.75;;;;;;;;;;6232813;23;20151;-90
2022/05/12 07:36:58;;;;;;;10.45;4.55;;;;;;;;;;6217563;23;20159;-90
2022/05/12 07:40:10;;;;;;;10.15;4.40;;;;;;;;;;6239551;23;20166;-90
2022/05/12 07:43:16;;;;;;;17.67;4.22;;;;;;;;;;6216763;23;20167;-89
2022/05/12 07:46:25;;;;;;;8.68;3.40;;;;;;;;;;6216911;23;20244;-89
2022/05/12 07:49:33;;;;;;;7.63;3.90;;;;;;;;;;6234778;23;20210;-90
2022/05/12 07:52:38;;;;;;;4.70;3.08;;;;;;;;;;6233913;23;20167;-91
2022/05/12 07:55:48;;;;;;;11.93;3.50;;;;;;;;;;6232890;23;20214;-92
2022/05/12 07:58:54;;;;;;;8.73;3.20;;;;;;;;;;6215950;23;20166;-91
2022/05/12 08:02:04;;;;;;;6.03;2.55;;;;;;;;;;6233876;23;20175;-88
2022/05/12 08:05:21;;;;;;;8.18;2.95;;;;;;;;;;6220253;23;20174;-88
2022/05/12 08:08:26;;;;;;;10.43;2.90;;;;;;;;;;6214171;23;20194;-90
2022/05/12 08:11:36;;;;;;;10.93;2.97;;;;;;;;;;6231940;23;20187;-90
2022/05/12 08:14:41;;;;;;;6.00;2.80;;;;;;;;;;6213575;23;20587;-89
2022/05/12 08:17:47;;;;;;;9.15;2.53;;;;;;;;;;6232780;23;20537;-92
2022/05/12 08:25:39;;;;;;;20.38;4.03;;;;;;;;;;6235254;23;20146;-88
2022/05/12 08:28:47;;;;;;;15.43;3.85;;;;;;;;;;6234361;23;20264;-91
2022/05/12 08:31:52;;;;;;;10.77;3.05;;;;;;;;;;6231388;23;20220;-90
2022/05/12 08:34:57;;;;;;;6.95;2.50;;;;;;;;;;6232685;23;20171;-91
2022/05/12 22:13:29;;;;;;;9.68;5.80;;;;;;;;;;6142581;23;20200;31
2022/05/12 22:16:36;;;;;;;9.88;5.63;;;;;;;;;;6124408;23;20169;-89
2022/05/12 22:19:45;;;;;;;16.52;5.95;;;;;;;;;;6123626;23;20174;-91
2022/05/12 22:22:50;;;;;;;11.02;5.50;;;;;;;;;;6125170;23;20699;-90
2022/05/12 22:25:55;;;;;;;12.75;5.40;;;;;;;;;;6124016;23;20241;-88
2022/05/12 22:29:02;;;;;;;9.40;5.13;;;;;;;;;;6125026;23;20185;-90
2022/05/12 22:32:09;;;;;;;13.10;5.72;;;;;;;;;;6124061;23;20198;-90
2022/05/12 22:35:15;;;;;;;17.33;5.55;;;;;;;;;;6123739;23;20629;-90
2022/05/12 22:38:21;;;;;;;12.98;5.85;;;;;;;;;;6128200;23;20161;-91
2022/05/12 22:41:26;;;;;;;29.63;14.05;;;;;;;;;;6126542;23;20164;-89
2022/05/12 22:44:31;;;;;;;19.45;6.22;;;;;;;;;;6126470;23;20166;-90
2022/05/12 22:47:40;;;;;;;13.65;5.78;;;;;;;;;;6123660;23;20608;-89
2022/05/12 22:50:45;;;;;;;13.70;5.93;;;;;;;;;;6123897;23;20156;-90
2022/05/12 22:53:50;;;;;;;9.43;5.15;;;;;;;;;;6125088;23;20173;-90
2022/05/12 22:56:55;;;;;;;13.13;5.55;;;;;;;;;;6125778;23;20169;-90
2022/05/12 23:00:00;;;;;;;11.27;6.47;;;;;;;;;;6123724;23;20197;-89
2022/05/12 23:03:08;;;;;;;10.90;6.20;;;;;;;;;;6124862;23;20156;-91
2022/05/12 23:06:14;;;;;;;13.48;6.95;;;;;;;;;;6126207;23;20160;-90
2022/05/12 23:09:20;;;;;;;11.70;6.15;;;;;;;;;;6124386;23;20255;-90
2022/05/12 23:12:25;;;;;;;12.98;6.38;;;;;;;;;;6125788;23;20180;-90
2022/05/12 23:15:30;;;;;;;12.43;6.00;;;;;;;;;;6140694;23;20284;-89
2022/05/12 23:22:57;;;;;;;13.55;5.88;;;;;;;;;;6142726;23;20153;-90
2022/05/12 23:26:03;;;;;;;19.83;6.82;;;;;;;;;;6140670;23;20173;-89
2022/05/12 23:29:08;;;;;;;12.43;7.13;;;;;;;;;;6140286;23;20196;-89
2022/05/12 23:32:14;;;;;;;13.30;6.80;;;;;;;;;;6141688;23;20164;-90
2022/05/12 23:35:20;;;;;;;10.93;6.72;;;;;;;;;;6140958;23;20173;-89
2022/05/12 23:38:27;;;;;;;12.88;6.78;;;;;;;;;;6141879;23;20164;-89
2022/05/12 23:41:32;;;;;;;13.10;7.53;;;;;;;;;;6141191;23;20169;-89
2022/05/12 23:44:38;;;;;;;13.00;7.10;;;;;;;;;;6138515;23;20165;-89
2022/05/12 23:47:43;;;;;;;14.18;7.38;;;;;;;;;;6139485;23;20197;-89
2022/05/12 23:50:48;;;;;;;11.73;6.88;;;;;;;;;;6138233;23;20192;-88
2022/05/12 23:53:55;;;;;;;14.35;7.20;;;;;;;;;;6138051;23;20149;-89
2022/05/12 23:57:01;;;;;;;14.32;7.45;;;;;;;;;;6139327;23;20169;-89
